createdAt,value
2019-03-24T00:02:22.617Z,0.43
2019-03-24T00:04:54.072Z,0.37
2019-03-24T00:07:26.254Z,0.37
2019-03-24T00:09:58.239Z,0.35
2019-03-24T00:12:29.048Z,0.36
2019-03-24T00:14:59.675Z,0.31
2019-03-24T00:17:30.309Z,0.32
2019-03-24T00:20:03.189Z,0.28
2019-03-24T00:22:33.745Z,0.25
2019-03-24T00:25:08.517Z,0.22
2019-03-24T00:27:39.380Z,0.27
2019-03-24T00:30:11.546Z,0.30
2019-03-24T00:32:42.501Z,0.32
2019-03-24T00:35:13.168Z,0.38
2019-03-24T00:37:43.850Z,0.36
2019-03-24T00:40:15.397Z,0.31
2019-03-24T00:42:46.949Z,0.26
2019-03-24T00:45:19.217Z,0.18
2019-03-24T00:47:50.055Z,0.17
2019-03-24T00:50:20.646Z,0.12
2019-03-24T00:52:51.418Z,0.07
2019-03-24T00:55:22.350Z,0.05
2019-03-24T00:57:53.909Z,0.03
2019-03-24T01:00:45.009Z,0.03
2019-03-24T01:03:15.959Z,-0.03
2019-03-24T01:05:46.528Z,-0.06
2019-03-24T01:08:17.414Z,-0.11
2019-03-24T01:10:48.045Z,-0.13
2019-03-24T01:13:18.677Z,-0.18
2019-03-24T01:15:49.616Z,-0.21
2019-03-24T01:18:20.449Z,-0.23
2019-03-24T01:20:51.676Z,-0.25
2019-03-24T01:23:23.651Z,-0.23
2019-03-24T01:25:56.329Z,-0.28
2019-03-24T01:28:27.806Z,-0.31
2019-03-24T01:30:58.511Z,-0.29
2019-03-24T01:33:29.218Z,-0.31
2019-03-24T01:36:00.081Z,-0.23
2019-03-24T01:38:30.487Z,-0.23
2019-03-24T01:41:01.441Z,-0.19
2019-03-24T01:43:32.282Z,-0.16
2019-03-24T01:46:03.671Z,-0.08
2019-03-24T01:48:34.065Z,-0.05
2019-03-24T01:51:05.600Z,0.02
2019-03-24T01:53:36.336Z,0.09
2019-03-24T01:56:09.150Z,0.05
2019-03-24T01:58:42.202Z,0.06
2019-03-24T02:01:13.450Z,0.02
2019-03-24T02:03:43.976Z,0.01
2019-03-24T02:06:14.603Z,0.04
2019-03-24T02:08:45.336Z,0.03
2019-03-24T02:11:16.068Z,0.08
2019-03-24T02:13:46.801Z,0.09
2019-03-24T02:16:17.418Z,0.07
2019-03-24T02:18:48.161Z,0.12
2019-03-24T02:21:19.404Z,0.13
2019-03-24T02:23:49.930Z,0.13
2019-03-24T02:26:20.971Z,0.18
2019-03-24T02:28:52.118Z,0.18
2019-03-24T02:31:22.746Z,0.19
2019-03-24T02:33:53.479Z,0.16
2019-03-24T02:36:24.726Z,0.18
2019-03-24T02:38:55.066Z,0.20
2019-03-24T02:41:25.520Z,0.21
2019-03-24T02:43:56.203Z,0.18
2019-03-24T02:46:27.548Z,0.17
2019-03-24T02:48:58.245Z,0.13
2019-03-24T02:51:28.816Z,0.16
2019-03-24T02:53:59.453Z,0.18
2019-03-24T02:56:30.170Z,0.21
2019-03-24T02:59:01.622Z,0.21
2019-03-24T03:01:32.294Z,0.25
2019-03-24T03:04:03.395Z,0.26
2019-03-24T03:06:33.725Z,0.20
2019-03-24T03:09:05.561Z,0.20
2019-03-24T03:11:36.106Z,0.16
2019-03-24T03:14:07.550Z,0.13
2019-03-24T03:16:39.284Z,0.11
2019-03-24T03:19:12.462Z,0.14
2019-03-24T03:21:42.688Z,0.14
2019-03-24T03:24:13.556Z,0.11
2019-03-24T03:26:44.492Z,0.12
2019-03-24T03:29:15.222Z,0.15
2019-03-24T03:31:45.648Z,0.15
2019-03-24T03:34:16.289Z,0.17
2019-03-24T03:36:47.392Z,0.21
2019-03-24T03:39:18.854Z,0.17
2019-03-24T03:41:50.930Z,0.19
2019-03-24T03:44:21.370Z,0.15
2019-03-24T03:46:53.274Z,0.16
2019-03-24T03:49:23.851Z,0.22
2019-03-24T03:51:55.191Z,0.20
2019-03-24T03:54:28.005Z,0.27
2019-03-24T03:56:58.401Z,0.28
2019-03-24T03:59:29.171Z,0.28
2019-03-24T04:01:59.865Z,0.31
2019-03-24T04:04:30.425Z,0.34
2019-03-24T04:07:02.664Z,0.34
2019-03-24T04:09:33.185Z,0.38
2019-03-24T04:12:04.326Z,0.43
2019-03-24T04:14:35.163Z,0.45
2019-03-24T04:17:07.821Z,0.49
2019-03-24T04:19:37.651Z,0.56
2019-03-24T04:22:08.385Z,0.60
2019-03-24T04:24:41.268Z,0.64
2019-03-24T04:27:12.629Z,0.67
2019-03-24T04:29:43.348Z,0.74
2019-03-24T04:32:13.979Z,0.74
2019-03-24T04:34:45.173Z,0.80
2019-03-24T04:37:15.958Z,0.81
2019-03-24T04:39:47.917Z,0.82
2019-03-24T04:42:18.584Z,0.90
2019-03-24T04:44:49.070Z,0.87
2019-03-24T04:47:19.603Z,1.02
2019-03-24T04:49:50.742Z,1.03
2019-03-24T04:52:22.363Z,1.10
2019-03-24T04:54:52.515Z,1.15
2019-03-24T04:57:23.244Z,1.26
2019-03-24T04:59:54.554Z,1.38
2019-03-24T05:02:25.335Z,1.26
2019-03-24T05:04:55.932Z,1.38
2019-03-24T05:07:29.147Z,1.54
2019-03-24T05:09:59.674Z,1.64
2019-03-24T05:12:32.557Z,1.75
2019-03-24T05:15:02.775Z,1.71
2019-03-24T05:17:33.409Z,1.65
2019-03-24T05:20:04.853Z,1.64
2019-03-24T05:22:35.077Z,1.62
2019-03-24T05:25:07.051Z,1.58
2019-03-24T05:27:37.241Z,1.62
2019-03-24T05:30:09.376Z,1.72
2019-03-24T05:32:40.262Z,1.72
2019-03-24T05:35:10.976Z,1.80
2019-03-24T05:37:41.625Z,1.88
2019-03-24T05:40:12.659Z,2.01
2019-03-24T05:42:43.192Z,2.06
2019-03-24T05:45:13.921Z,2.16
2019-03-24T05:47:44.553Z,2.27
2019-03-24T05:50:15.282Z,2.22
2019-03-24T05:52:45.793Z,2.53
2019-03-24T05:55:16.194Z,2.73
2019-03-24T05:57:47.374Z,2.83
2019-03-24T06:00:18.312Z,2.78
2019-03-24T06:02:49.043Z,2.85
2019-03-24T06:05:20.012Z,2.97
2019-03-24T06:07:50.501Z,2.89
2019-03-24T06:10:21.146Z,3.18
2019-03-24T06:12:52.486Z,3.12
2019-03-24T06:15:23.262Z,3.37
2019-03-24T06:17:53.748Z,3.47
2019-03-24T06:20:24.273Z,3.65
2019-03-24T06:22:54.808Z,3.69
2019-03-24T06:25:25.465Z,3.75
2019-03-24T06:27:56.166Z,3.88
2019-03-24T06:30:26.695Z,3.96
2019-03-24T06:32:57.224Z,3.69
2019-03-24T06:35:27.747Z,3.82
2019-03-24T06:38:00.427Z,4.00
2019-03-24T06:40:30.950Z,3.97
2019-03-24T06:43:02.310Z,4.16
2019-03-24T06:45:32.829Z,4.28
2019-03-24T06:48:04.280Z,4.36
2019-03-24T06:50:35.730Z,4.60
2019-03-24T06:53:06.355Z,4.52
2019-03-24T06:55:36.847Z,4.80
2019-03-24T06:58:09.970Z,5.19
2019-03-24T07:00:40.495Z,5.54
2019-03-24T07:03:11.645Z,5.93
2019-03-24T07:05:42.132Z,6.02
2019-03-24T07:08:14.951Z,5.99
2019-03-24T07:10:45.987Z,6.05
2019-03-24T07:13:16.518Z,5.90
2019-03-24T07:15:47.253Z,6.32
2019-03-24T07:18:17.781Z,6.64
2019-03-24T07:20:48.409Z,6.97
2019-03-24T07:23:18.835Z,7.21
2019-03-24T07:25:50.160Z,7.27
2019-03-24T07:28:20.407Z,7.45
2019-03-24T07:30:51.135Z,7.49
2019-03-24T07:33:22.210Z,7.71
2019-03-24T07:35:53.317Z,8.03
2019-03-24T07:38:25.480Z,8.19
2019-03-24T07:40:55.803Z,7.35
2019-03-24T07:43:26.328Z,7.35
2019-03-24T07:45:56.961Z,7.75
2019-03-24T07:48:27.117Z,7.95
2019-03-24T07:50:58.219Z,7.48
2019-03-24T07:53:28.745Z,8.18
2019-03-24T07:55:59.275Z,8.68
2019-03-24T07:58:29.906Z,9.15
2019-03-24T08:01:02.012Z,8.81
2019-03-24T08:03:32.531Z,8.63
2019-03-24T08:06:03.629Z,8.21
2019-03-24T08:08:43.857Z,8.14
2019-03-24T08:11:06.225Z,8.45
2019-03-24T08:13:36.959Z,8.20
2019-03-24T08:16:07.296Z,8.43
2019-03-24T08:18:38.322Z,8.79
2019-03-24T08:21:08.737Z,9.27
2019-03-24T08:23:39.378Z,9.80
2019-03-24T08:26:09.911Z,9.37
2019-03-24T08:28:41.355Z,9.39
2019-03-24T08:31:12.193Z,9.86
2019-03-24T08:33:42.510Z,9.56
2019-03-24T08:36:13.013Z,10.08
2019-03-24T08:38:44.624Z,10.15
2019-03-24T08:41:15.918Z,10.72
2019-03-24T08:43:48.623Z,10.72
2019-03-24T08:46:19.351Z,11.32
2019-03-24T08:48:50.081Z,11.61
2019-03-24T08:51:20.816Z,11.29
2019-03-24T08:53:53.083Z,11.07
2019-03-24T08:56:25.045Z,10.73
2019-03-24T08:58:55.675Z,9.60
2019-03-24T09:01:26.305Z,9.23
2019-03-24T09:03:56.937Z,9.36
2019-03-24T09:06:29.210Z,10.08
2019-03-24T09:09:01.171Z,10.47
2019-03-24T09:11:31.771Z,9.99
2019-03-24T09:14:04.371Z,9.77
2019-03-24T09:16:34.593Z,9.38
2019-03-24T09:19:05.221Z,9.16
2019-03-24T09:21:35.748Z,9.05
2019-03-24T09:24:06.282Z,8.84
2019-03-24T09:26:37.409Z,8.96
2019-03-24T09:29:09.465Z,9.04
2019-03-24T09:31:40.011Z,9.14
2019-03-24T09:34:10.534Z,9.10
2019-03-24T09:36:41.073Z,8.97
2019-03-24T09:39:12.109Z,9.51
2019-03-24T09:41:42.835Z,9.42
2019-03-24T09:44:13.464Z,9.03
2019-03-24T09:46:45.529Z,8.82
2019-03-24T09:49:16.343Z,9.66
2019-03-24T09:51:48.427Z,10.71
2019-03-24T09:54:18.855Z,11.03
2019-03-24T09:56:49.381Z,11.19
2019-03-24T09:59:20.034Z,10.82
2019-03-24T10:01:50.649Z,11.31
2019-03-24T10:04:21.576Z,11.12
2019-03-24T10:06:52.119Z,10.98
2019-03-24T10:09:22.606Z,10.44
2019-03-24T10:11:53.199Z,9.80
2019-03-24T10:14:23.691Z,9.89
2019-03-24T10:16:55.780Z,9.68
2019-03-24T10:19:26.077Z,9.43
2019-03-24T10:21:58.857Z,9.72
2019-03-24T10:24:29.594Z,10.37
2019-03-24T10:27:00.013Z,11.38
2019-03-24T10:29:31.365Z,11.05
2019-03-24T10:32:01.932Z,10.27
2019-03-24T10:34:32.334Z,10.23
2019-03-24T10:37:03.360Z,9.76
2019-03-24T10:39:34.619Z,10.01
2019-03-24T10:42:05.126Z,10.20
2019-03-24T10:44:36.573Z,9.75
2019-03-24T10:47:07.566Z,9.57
2019-03-24T10:49:38.746Z,9.40
2019-03-24T10:52:10.937Z,9.36
2019-03-24T10:54:41.344Z,9.35
2019-03-24T10:57:11.875Z,8.97
2019-03-24T10:59:42.938Z,9.12
2019-03-24T11:02:13.645Z,9.29
2019-03-24T11:04:44.384Z,9.43
2019-03-24T11:07:14.807Z,9.86
2019-03-24T11:09:45.334Z,9.82
2019-03-24T11:12:15.863Z,9.41
2019-03-24T11:14:46.596Z,10.40
2019-03-24T11:17:18.152Z,10.75
2019-03-24T11:19:48.491Z,10.19
2019-03-24T11:22:19.278Z,9.54
2019-03-24T11:24:51.445Z,9.31
2019-03-24T11:27:22.623Z,9.81
2019-03-24T11:29:53.344Z,9.57
2019-03-24T11:32:27.212Z,9.43
2019-03-24T11:35:01.797Z,9.21
2019-03-24T11:37:33.526Z,9.32
2019-03-24T11:40:06.006Z,9.59
2019-03-24T11:42:36.424Z,10.07
2019-03-24T11:45:09.525Z,9.93
2019-03-24T11:47:39.735Z,10.47
2019-03-24T11:50:10.478Z,10.26
2019-03-24T11:52:41.201Z,10.51
2019-03-24T11:55:12.959Z,10.40
2019-03-24T11:57:45.480Z,9.56
2019-03-24T12:00:17.082Z,9.64
2019-03-24T12:02:49.861Z,9.81
2019-03-24T12:05:20.732Z,9.73
2019-03-24T12:07:51.635Z,8.99
2019-03-24T12:10:22.648Z,8.51
2019-03-24T12:12:53.201Z,8.64
2019-03-24T12:15:24.651Z,9.37
2019-03-24T12:17:54.877Z,10.09
2019-03-24T12:20:27.465Z,10.34
2019-03-24T12:22:58.281Z,10.41
2019-03-24T12:25:30.658Z,10.02
2019-03-24T12:28:02.207Z,9.50
2019-03-24T12:30:33.556Z,9.27
2019-03-24T12:33:04.004Z,8.91
2019-03-24T12:35:34.837Z,8.98
2019-03-24T12:38:05.542Z,8.88
2019-03-24T12:40:36.198Z,9.10
2019-03-24T12:43:19.045Z,9.24
2019-03-24T12:45:43.576Z,9.20
2019-03-24T12:48:14.261Z,8.75
2019-03-24T12:50:44.836Z,8.93
2019-03-24T12:53:16.083Z,9.27
2019-03-24T12:55:46.288Z,9.59
2019-03-24T12:58:18.035Z,9.79
2019-03-24T13:00:49.844Z,9.35
2019-03-24T13:03:20.344Z,9.29
2019-03-24T13:05:51.385Z,8.82
2019-03-24T13:08:22.015Z,8.18
2019-03-24T13:10:53.264Z,7.94
2019-03-24T13:13:23.482Z,7.84
2019-03-24T13:15:54.008Z,7.91
2019-03-24T13:18:24.562Z,7.92
2019-03-24T13:20:55.062Z,7.93
2019-03-24T13:23:25.699Z,8.23
2019-03-24T13:25:58.935Z,8.56
2019-03-24T13:28:29.121Z,8.77
2019-03-24T13:31:00.125Z,8.89
2019-03-24T13:33:30.772Z,8.92
2019-03-24T13:36:13.583Z,9.36
2019-03-24T13:38:43.953Z,9.94
2019-03-24T13:41:14.541Z,11.19
2019-03-24T13:43:47.628Z,11.01
2019-03-24T13:46:18.580Z,9.95
2019-03-24T13:48:49.310Z,9.62
2019-03-24T13:51:20.028Z,9.39
2019-03-24T13:53:51.934Z,9.33
2019-03-24T13:56:22.519Z,8.92
2019-03-24T13:58:54.993Z,8.75
2019-03-24T14:01:25.494Z,8.58
2019-03-24T14:03:56.462Z,8.82
2019-03-24T14:06:27.599Z,8.75
2019-03-24T14:08:58.740Z,8.61
2019-03-24T14:11:28.840Z,8.39
2019-03-24T14:13:59.392Z,8.09
2019-03-24T14:16:31.587Z,8.05
2019-03-24T14:19:01.907Z,7.96
2019-03-24T14:21:34.039Z,7.87
2019-03-24T14:24:08.635Z,7.86
2019-03-24T14:26:38.886Z,7.78
2019-03-24T14:29:09.428Z,7.78
2019-03-24T14:31:40.147Z,7.80
2019-03-24T14:34:10.692Z,7.76
2019-03-24T14:36:41.303Z,7.71
2019-03-24T14:39:11.840Z,7.71
2019-03-24T14:41:43.180Z,7.63
2019-03-24T14:44:13.908Z,7.65
2019-03-24T14:46:44.541Z,7.59
2019-03-24T14:49:15.889Z,7.57
2019-03-24T14:51:46.111Z,7.52
2019-03-24T14:54:16.534Z,7.45
2019-03-24T14:56:47.265Z,7.50
2019-03-24T14:59:18.001Z,7.49
2019-03-24T15:01:48.727Z,7.52
2019-03-24T15:04:19.464Z,7.54
2019-03-24T15:06:50.504Z,7.51
2019-03-24T15:09:21.170Z,7.51
2019-03-24T15:11:52.684Z,7.53
2019-03-24T15:14:23.005Z,7.55
2019-03-24T15:16:53.839Z,7.54
2019-03-24T15:19:25.086Z,7.55
2019-03-24T15:21:55.382Z,7.51
2019-03-24T15:24:27.880Z,7.39
2019-03-24T15:26:58.511Z,7.41
2019-03-24T15:29:29.144Z,7.41
2019-03-24T15:32:00.080Z,7.44
2019-03-24T15:34:30.814Z,7.39
2019-03-24T15:37:02.365Z,7.30
2019-03-24T15:39:32.655Z,7.30
2019-03-24T15:42:03.522Z,7.27
2019-03-24T15:44:34.362Z,7.29
2019-03-24T15:47:06.418Z,7.22
2019-03-24T15:49:37.254Z,7.20
2019-03-24T15:52:08.439Z,7.32
2019-03-24T15:54:39.231Z,7.35
2019-03-24T15:57:10.641Z,7.32
2019-03-24T15:59:42.645Z,7.26
2019-03-24T16:02:13.375Z,7.23
2019-03-24T16:04:44.416Z,7.15
2019-03-24T16:07:15.275Z,7.06
2019-03-24T16:09:46.493Z,7.03
2019-03-24T16:12:17.234Z,6.99
2019-03-24T16:14:47.959Z,6.97
2019-03-24T16:17:19.185Z,6.93
2019-03-24T16:19:49.830Z,7.00
2019-03-24T16:22:20.563Z,6.98
2019-03-24T16:24:51.305Z,7.00
2019-03-24T16:27:21.929Z,7.09
2019-03-24T16:29:52.668Z,7.04
2019-03-24T16:32:24.013Z,7.10
2019-03-24T16:34:54.846Z,7.08
2019-03-24T16:37:25.677Z,7.09
2019-03-24T16:39:56.410Z,7.13
2019-03-24T16:42:27.089Z,7.14
2019-03-24T16:44:59.219Z,7.07
2019-03-24T16:47:29.778Z,7.09
2019-03-24T16:50:00.877Z,7.06
2019-03-24T16:52:32.415Z,7.03
2019-03-24T16:55:03.158Z,6.96
2019-03-24T16:57:33.895Z,6.88
2019-03-24T17:00:07.492Z,6.80
2019-03-24T17:02:38.118Z,6.76
2019-03-24T17:05:08.784Z,6.73
2019-03-24T17:07:39.586Z,6.73
2019-03-24T17:10:10.728Z,6.83
2019-03-24T17:12:41.562Z,6.74
2019-03-24T17:15:12.294Z,6.75
2019-03-24T17:17:43.948Z,6.69
2019-03-24T17:20:16.017Z,6.82
2019-03-24T17:22:46.639Z,6.77
2019-03-24T17:25:17.219Z,6.70
2019-03-24T17:27:47.907Z,6.66
2019-03-24T17:30:18.744Z,6.68
2019-03-24T17:32:50.295Z,6.65
2019-03-24T17:35:20.715Z,6.68
2019-03-24T17:37:53.001Z,6.67
2019-03-24T17:40:23.408Z,6.65
2019-03-24T17:42:54.142Z,6.56
2019-03-24T17:45:24.872Z,6.48
2019-03-24T17:47:55.704Z,6.47
2019-03-24T17:50:26.568Z,6.37
2019-03-24T17:52:57.482Z,6.43
2019-03-24T17:55:30.899Z,6.48
2019-03-24T17:58:00.281Z,6.62
2019-03-24T18:00:45.246Z,6.67
2019-03-24T18:03:15.799Z,6.66
2019-03-24T18:05:48.424Z,6.63
2019-03-24T18:08:19.452Z,6.61
2019-03-24T18:10:50.075Z,6.67
2019-03-24T18:13:21.168Z,6.69
2019-03-24T18:15:51.900Z,6.70
2019-03-24T18:18:22.836Z,6.84
2019-03-24T18:20:54.072Z,6.72
2019-03-24T18:23:24.701Z,6.82
2019-03-24T18:25:55.639Z,6.79
2019-03-24T18:28:26.572Z,6.81
2019-03-24T18:30:57.204Z,6.79
2019-03-24T18:33:30.598Z,6.84
2019-03-24T18:36:00.822Z,6.79
2019-03-24T18:38:32.884Z,6.74
2019-03-24T18:41:03.308Z,6.68
2019-03-24T18:43:34.038Z,6.66
2019-03-24T18:46:04.707Z,6.54
2019-03-24T18:48:35.510Z,6.61
2019-03-24T18:51:06.238Z,6.40
2019-03-24T18:53:38.475Z,6.36
2019-03-24T18:56:09.862Z,6.44
2019-03-24T18:58:40.279Z,6.25
2019-03-24T19:01:11.013Z,6.21
2019-03-24T19:03:41.964Z,6.41
2019-03-24T19:06:12.419Z,6.49
2019-03-24T19:08:43.216Z,6.38
2019-03-24T19:11:14.763Z,6.27
2019-03-24T19:13:45.401Z,6.32
2019-03-24T19:16:15.935Z,6.26
2019-03-24T19:18:46.755Z,6.47
2019-03-24T19:21:17.346Z,6.51
2019-03-24T19:23:48.119Z,6.38
2019-03-24T19:26:19.052Z,6.42
2019-03-24T19:28:49.615Z,6.46
2019-03-24T19:31:20.213Z,6.65
2019-03-24T19:33:50.946Z,6.69
2019-03-24T19:36:21.573Z,6.77
2019-03-24T19:38:52.202Z,6.95
2019-03-24T19:41:23.240Z,6.86
2019-03-24T19:43:54.281Z,6.77
2019-03-24T19:46:25.321Z,6.89
2019-03-24T19:48:56.876Z,6.88
2019-03-24T19:51:28.300Z,6.87
2019-03-24T19:53:59.055Z,6.94
2019-03-24T19:56:31.330Z,6.96
2019-03-24T19:59:02.058Z,6.95
2019-03-24T20:01:32.582Z,6.98
2019-03-24T20:04:04.751Z,6.97
2019-03-24T20:06:34.963Z,6.97
2019-03-24T20:09:08.569Z,7.04
2019-03-24T20:11:38.797Z,7.08
2019-03-24T20:14:09.524Z,7.08
2019-03-24T20:16:40.151Z,7.04
2019-03-24T20:19:10.779Z,7.03
2019-03-24T20:21:41.424Z,7.01
2019-03-24T20:24:12.449Z,7.04
2019-03-24T20:26:43.787Z,7.04
2019-03-24T20:29:15.265Z,7.04
2019-03-24T20:31:45.777Z,7.01
2019-03-24T20:34:17.022Z,6.98
2019-03-24T20:36:48.059Z,6.94
2019-03-24T20:39:18.598Z,6.97
2019-03-24T20:41:50.037Z,6.87
2019-03-24T20:44:20.358Z,6.83
2019-03-24T20:46:51.222Z,6.69
2019-03-24T20:49:22.627Z,6.71
2019-03-24T20:51:53.482Z,6.78
2019-03-24T20:54:24.007Z,6.70
2019-03-24T20:56:55.862Z,6.70
2019-03-24T20:59:26.597Z,6.53
2019-03-24T21:01:58.944Z,6.52
2019-03-24T21:04:29.395Z,6.37
2019-03-24T21:07:00.030Z,6.32
2019-03-24T21:09:30.756Z,6.32
2019-03-24T21:12:01.490Z,6.24
2019-03-24T21:14:32.325Z,6.20
2019-03-24T21:17:03.024Z,6.21
2019-03-24T21:19:34.097Z,6.22
2019-03-24T21:22:05.543Z,6.12
2019-03-24T21:24:35.868Z,6.07
2019-03-24T21:27:07.291Z,6.02
2019-03-24T21:29:38.765Z,6.05
2019-03-24T21:32:10.416Z,5.99
2019-03-24T21:34:41.456Z,5.90
2019-03-24T21:37:11.990Z,5.98
2019-03-24T21:39:43.231Z,5.88
2019-03-24T21:42:13.653Z,5.93
2019-03-24T21:44:44.301Z,5.88
2019-03-24T21:47:15.121Z,5.91
2019-03-24T21:49:47.300Z,5.98
2019-03-24T21:52:18.017Z,5.89
2019-03-24T21:54:48.653Z,5.95
2019-03-24T21:57:19.385Z,5.96
2019-03-24T21:59:52.624Z,5.91
2019-03-24T22:02:23.718Z,5.85
2019-03-24T22:04:55.983Z,5.91
2019-03-24T22:07:26.477Z,5.87
2019-03-24T22:09:57.614Z,5.74
2019-03-24T22:12:29.205Z,5.74
2019-03-24T22:14:59.934Z,5.69
2019-03-24T22:17:30.669Z,5.63
2019-03-24T22:20:01.212Z,5.54
2019-03-24T22:22:31.821Z,5.48
2019-03-24T22:25:02.454Z,5.34
2019-03-24T22:27:33.189Z,5.35
2019-03-24T22:30:05.145Z,5.40
2019-03-24T22:32:35.577Z,5.32
2019-03-24T22:35:06.820Z,5.13
2019-03-24T22:37:37.265Z,5.06
2019-03-24T22:40:08.493Z,5.06
2019-03-24T22:42:38.814Z,4.98
2019-03-24T22:45:09.228Z,4.88
2019-03-24T22:47:39.977Z,4.77
2019-03-24T22:50:10.803Z,4.74
2019-03-24T22:52:41.540Z,4.78
2019-03-24T22:55:12.276Z,4.79
2019-03-24T22:57:44.535Z,4.72
2019-03-24T23:00:19.175Z,4.56
2019-03-24T23:02:51.942Z,4.53
2019-03-24T23:05:22.875Z,4.53
2019-03-24T23:07:53.611Z,4.52
2019-03-24T23:10:25.252Z,4.45
2019-03-24T23:12:55.901Z,4.40
2019-03-24T23:15:27.965Z,4.48
2019-03-24T23:17:58.348Z,4.60
2019-03-24T23:20:29.116Z,4.51
2019-03-24T23:23:00.052Z,4.52
2019-03-24T23:25:30.587Z,4.46
2019-03-24T23:28:01.312Z,4.43
2019-03-24T23:30:32.863Z,4.39
2019-03-24T23:33:07.187Z,4.31
2019-03-24T23:35:38.154Z,4.35
2019-03-24T23:38:08.956Z,4.33
2019-03-24T23:40:40.419Z,4.22
2019-03-24T23:43:10.930Z,4.13
2019-03-24T23:45:42.275Z,4.18
2019-03-24T23:48:12.907Z,4.13
2019-03-24T23:50:43.637Z,4.07
2019-03-24T23:53:13.847Z,4.11
2019-03-24T23:55:45.205Z,4.16
2019-03-24T23:58:16.448Z,4.11
